Time;durP1;ratioP1;P1;durP2;ratioP2;P2;SDS_P1;SDS_P2;PMS_P1;PMS_P2;Temp;Humidity;BMP_temperature;BMP_pressure;BME280_temperature;BME280_humidity;BME280_pressure;Samples;Min_cycle;Max_cycle;Signal;HPM_P1;HPM_P2
2023/05/12 00:00:42;;;;;;;6.93;4.68;;;;;;;9.80;100.00;104036.03;5054130;28;20115;-73
2023/05/12 00:03:07;;;;;;;8.00;5.25;;;;;;;9.31;100.00;104015.34;5053908;28;20033;-73
2023/05/12 00:05:32;;;;;;;7.00;5.47;;;;;;;9.03;100.00;103958.25;5036371;28;20035;-72
2023/05/12 00:07:58;;;;;;;11.30;5.32;;;;;;;9.06;100.00;103959.25;5036580;28;20115;-73
2023/05/12 00:10:26;;;;;;;9.55;5.30;;;;;;;9.07;100.00;103966.03;5054786;28;20021;-74
2023/05/12 00:12:51;;;;;;;12.52;5.22;;;;;;;8.88;100.00;103924.59;5036329;28;20029;-73
2023/05/12 00:15:18;;;;;;;10.75;5.05;;;;;;;9.46;100.00;104023.63;5054539;28;20028;-72
2023/05/12 00:17:44;;;;;;;9.18;5.57;;;;;;;9.65;100.00;104019.31;5053994;28;20028;-73
2023/05/12 00:20:10;;;;;;;9.60;5.10;;;;;;;9.04;100.00;103909.22;5036337;28;20064;-74
2023/05/12 00:22:36;;;;;;;7.90;4.80;;;;;;;9.59;100.00;103898.81;5053499;28;20051;-74
2023/05/12 00:25:01;;;;;;;5.95;4.70;;;;;;;9.68;100.00;103898.31;5053553;28;20033;-73
2023/05/12 00:27:26;;;;;;;7.43;4.43;;;;;;;9.80;100.00;103888.63;5036262;28;20487;-74
2023/05/12 00:29:52;;;;;;;7.35;4.40;;;;;;;9.86;100.00;103883.78;5053948;28;20021;-73
2023/05/12 00:32:17;;;;;;;5.00;4.00;;;;;;;9.65;100.00;103880.38;5054031;28;20119;-73
2023/05/12 00:34:43;;;;;;;7.32;4.45;;;;;;;9.28;100.00;103813.72;5053950;28;20031;-73
2023/05/12 00:37:09;;;;;;;5.05;4.35;;;;;;;9.20;100.00;103808.34;5053933;28;20484;-73
2023/05/12 00:39:35;;;;;;;7.32;4.20;;;;;;;9.69;100.00;103914.41;5054002;28;20091;-73
2023/05/12 00:42:00;;;;;;;9.95;4.05;;;;;;;9.57;100.00;103881.75;5054043;28;20029;-73
2023/05/12 00:44:26;;;;;;;5.60;4.40;;;;;;;9.38;100.00;103851.38;5053490;28;20495;-73
2023/05/12 00:46:51;;;;;;;5.10;4.13;;;;;;;9.51;100.00;103858.66;5036188;28;20036;-74
2023/05/12 00:49:18;;;;;;;4.93;4.03;;;;;;;9.28;100.00;103834.03;5035367;28;20039;-73
2023/05/12 00:51:44;;;;;;;8.25;4.70;;;;;;;9.43;100.00;103860.03;5053577;28;20041;-73
2023/05/12 00:54:09;;;;;;;7.15;4.53;;;;;;;9.26;100.00;103840.72;5053529;28;20060;-73
2023/05/12 00:56:38;;;;;;;7.78;4.50;;;;;;;9.81;100.00;103905.59;5053071;28;20101;-73
2023/05/12 00:59:07;;;;;;;4.72;4.05;;;;;;;9.65;100.00;103854.97;5035643;28;20483;-73
2023/05/12 01:01:33;;;;;;;7.07;4.20;;;;;;;9.38;100.00;103861.53;5053400;28;20033;-73
2023/05/12 01:04:00;;;;;;;6.18;4.40;;;;;;;9.50;100.00;103870.53;5053123;28;20029;-74
2023/05/12 01:06:38;;;;;;;8.05;4.35;;;;;;;9.66;100.00;103884.69;5052595;28;20566;-74
2023/05/12 01:09:03;;;;;;;8.75;4.32;;;;;;;9.27;100.00;103814.56;5053179;28;20108;-73
2023/05/12 01:11:29;;;;;;;6.82;4.40;;;;;;;9.53;100.00;103829.09;5053633;28;20033;-73
2023/05/12 01:13:54;;;;;;;6.32;4.30;;;;;;;8.99;100.00;103799.03;5053019;28;20021;-73
2023/05/12 01:16:24;;;;;;;7.32;4.20;;;;;;;9.31;100.00;103850.25;5053186;28;20147;-73
2023/05/12 01:18:53;;;;;;;4.57;3.92;;;;;;;8.80;100.00;103751.72;5053612;28;20027;-73
2023/05/12 01:21:19;;;;;;;4.63;3.67;;;;;;;8.76;100.00;103780.31;5052731;28;20036;-73
2023/05/12 01:23:53;;;;;;;6.28;4.50;;;;;;;8.89;100.00;103781.69;5034969;28;20033;-73
2023/05/12 01:26:19;;;;;;;4.95;3.78;;;;;;;9.27;100.00;103828.09;5052943;28;20036;-73
2023/05/12 01:28:46;;;;;;;4.38;3.55;;;;;;;9.03;100.00;103776.34;5035252;28;20028;-72
2023/05/12 01:31:13;;;;;;;8.00;4.18;;;;;;;8.92;100.00;103792.81;5053175;28;20155;-73
2023/05/12 01:33:38;;;;;;;6.05;3.63;;;;;;;8.77;100.00;103749.94;5034619;28;20056;-73
2023/05/12 01:36:04;;;;;;;5.55;3.80;;;;;;;8.73;100.00;103770.91;5051851;28;20057;-73
2023/05/12 01:38:32;;;;;;;7.78;4.05;;;;;;;8.89;100.00;103781.69;5034944;28;20032;-73
2023/05/12 01:40:57;;;;;;;7.15;4.00;;;;;;;8.75;100.00;103766.75;5051982;28;20037;-73
2023/05/12 01:43:23;;;;;;;5.97;3.60;;;;;;;8.49;100.00;103701.44;5052207;28;20090;-73
2023/05/12 01:45:48;;;;;;;6.05;3.63;;;;;;;8.71;100.00;103737.00;5052518;28;20514;-73
2023/05/12 01:48:13;;;;;;;6.50;4.00;;;;;;;8.67;100.00;103749.50;5052248;28;20111;-73
2023/05/12 01:50:39;;;;;;;5.03;3.90;;;;;;;8.83;100.00;103751.88;5034881;28;20498;-73
2023/05/12 01:53:04;;;;;;;5.47;4.40;;;;;;;8.77;100.00;103740.59;5062423;28;20492;-73
2023/05/12 01:55:30;;;;;;;7.03;4.00;;;;;;;8.66;100.00;103723.28;5054427;28;20075;-73
2023/05/12 01:57:55;;;;;;;5.72;3.53;;;;;;;8.95;100.00;103726.97;5072004;28;20065;-73
2023/05/12 02:00:21;;;;;;;5.30;3.90;;;;;;;8.79;100.00;103719.56;5072306;28;20028;-73
2023/05/12 02:02:46;;;;;;;5.88;3.70;;;;;;;8.77;100.00;103682.25;5054060;28;20028;-74
2023/05/12 02:05:12;;;;;;;8.07;3.75;;;;;;;8.82;100.00;103708.66;5072039;28;20063;-73
2023/05/12 02:07:37;;;;;;;7.10;3.60;;;;;;;8.81;100.00;103687.50;5071684;28;20351;-74
2023/05/12 02:10:04;;;;;;;6.18;4.03;;;;;;;8.88;100.00;103678.44;5072334;28;20029;-74
2023/05/12 02:12:29;;;;;;;6.95;4.50;;;;;;;8.65;100.00;103680.97;5070706;28;20036;-73
2023/05/12 02:14:55;;;;;;;6.45;4.40;;;;;;;8.84;100.00;103679.13;5072393;28;20453;-74
2023/05/12 02:17:23;;;;;;;5.95;4.05;;;;;;;8.61;100.00;103648.69;5054676;28;20031;-74
2023/05/12 02:19:50;;;;;;;4.45;3.65;;;;;;;9.00;100.00;103684.00;5054381;28;20067;-74
2023/05/12 02:22:16;;;;;;;5.78;4.13;;;;;;;8.91;100.00;103674.38;5052604;28;20442;-73
2023/05/12 02:24:41;;;;;;;5.60;3.83;;;;;;;8.79;100.00;103637.50;5071548;28;20024;-72
2023/05/12 02:27:06;;;;;;;7.53;3.88;;;;;;;9.18;100.00;103670.34;5071587;28;20028;-73
2023/05/12 02:29:32;;;;;;;6.57;4.28;;;;;;;8.87;100.00;103610.75;5071521;28;20055;-74
2023/05/12 02:31:58;;;;;;;8.75;4.28;;;;;;;9.24;100.00;103654.44;5053641;28;20119;-73
2023/05/12 02:34:23;;;;;;;7.28;4.57;;;;;;;9.08;100.00;103617.47;5053817;28;20033;-73
2023/05/12 02:36:49;;;;;;;4.93;4.13;;;;;;;9.15;100.00;103590.66;5071149;28;20464;-73
2023/05/12 02:39:14;;;;;;;10.68;4.40;;;;;;;9.06;100.00;103545.50;5071575;28;20147;-73
2023/05/12 02:41:40;;;;;;;7.22;4.00;;;;;;;8.75;100.00;103466.56;5071425;28;20025;-73
2023/05/12 02:44:05;;;;;;;8.50;4.70;;;;;;;9.14;100.00;103482.28;5071956;28;20081;-73
2023/05/12 02:46:30;;;;;;;6.90;4.30;;;;;;;8.93;100.00;103428.28;5070920;28;20081;-74
2023/05/12 02:48:56;;;;;;;7.45;4.30;;;;;;;8.73;100.00;103343.88;5053899;28;20032;-73
2023/05/12 02:51:21;;;;;;;6.32;4.25;;;;;;;8.94;100.00;103313.25;5071008;28;20424;-72
2023/05/12 02:53:47;;;;;;;5.13;3.75;;;;;;;8.65;100.00;103216.81;5042298;28;20057;-73
2023/05/12 02:56:14;;;;;;;5.60;3.40;;;;;;;8.90;100.00;103149.03;5032924;28;20554;-73
2023/05/12 02:58:39;;;;;;;5.47;3.90;;;;;;;9.11;100.00;102955.09;5051383;28;20041;-73
2023/05/12 03:01:04;;;;;;;5.22;3.60;;;;;;;8.93;100.00;102865.84;5033099;28;20025;-73
2023/05/12 03:03:30;;;;;;;8.70;3.75;;;;;;;9.28;100.00;102936.09;5050337;28;20067;-74
2023/05/12 03:05:55;;;;;;;5.03;3.85;;;;;;;8.81;100.00;102877.34;5050866;28;20052;-73
2023/05/12 03:08:21;;;;;;;6.28;3.85;;;;;;;8.60;100.00;102885.22;5051165;28;20120;-74
2023/05/12 03:10:46;;;;;;;5.55;3.42;;;;;;;8.90;100.00;102923.22;5033117;28;20037;-73
2023/05/12 03:13:12;;;;;;;6.00;4.00;;;;;;;9.15;100.00;102956.06;5067020;28;20051;-72
2023/05/12 03:15:37;;;;;;;8.02;5.50;;;;;;;8.09;100.00;102854.22;5071193;28;20407;-72
2023/05/12 03:18:03;;;;;;;7.82;5.47;;;;;;;8.36;100.00;102879.50;5053290;28;20029;-73
2023/05/12 03:20:28;;;;;;;8.38;6.63;;;;;;;8.30;100.00;102870.03;5052977;28;20490;-73
2023/05/12 03:22:54;;;;;;;11.43;7.43;;;;;;;7.93;100.00;102790.38;5053322;28;20024;-73
2023/05/12 03:25:19;;;;;;;11.80;8.73;;;;;;;8.38;100.00;102853.38;5053125;28;20498;-73
2023/05/12 03:27:44;;;;;;;11.45;6.85;;;;;;;7.80;100.00;102781.59;5053329;28;20060;-73
2023/05/12 03:30:10;;;;;;;13.75;6.72;;;;;;;8.20;100.00;102832.53;5052901;28;20033;-73
2023/05/12 03:32:39;;;;;;;14.98;7.10;;;;;;;8.10;100.00;102827.22;5052741;28;20063;-72
2023/05/12 03:35:06;;;;;;;10.40;6.50;;;;;;;8.14;100.00;102842.50;5071018;28;20117;-73
2023/05/12 03:37:31;;;;;;;17.30;7.45;;;;;;;8.67;100.00;102847.41;5053003;28;20071;-71
2023/05/12 03:39:57;;;;;;;15.00;7.47;;;;;;;8.33;100.00;102865.06;5052547;28;20483;-71
2023/05/12 03:42:24;;;;;;;11.70;7.60;;;;;;;8.44;100.00;102878.88;5052939;28;20487;-70
2023/05/12 03:44:53;;;;;;;13.75;7.18;;;;;;;8.16;100.00;102858.63;5053101;28;20032;-73
2023/05/12 03:47:18;;;;;;;15.55;7.10;;;;;;;8.46;100.00;102922.88;5068329;28;20036;-71
2023/05/12 03:49:44;;;;;;;10.88;6.88;;;;;;;8.55;100.00;102928.22;5068476;28;20045;-70
2023/05/12 03:52:09;;;;;;;11.05;6.40;;;;;;;8.46;100.00;102911.88;5051170;28;20050;-71
2023/05/12 03:54:34;;;;;;;14.68;7.65;;;;;;;8.35;100.00;102931.88;5051979;28;20053;-69
2023/05/12 03:57:00;;;;;;;16.38;7.35;;;;;;;8.07;100.00;102840.63;5069408;28;20513;-69
2023/05/12 03:59:25;;;;;;;15.23;7.60;;;;;;;8.71;100.00;102950.63;5055467;28;20044;-70
2023/05/12 04:01:54;;;;;;;12.85;7.07;;;;;;;8.80;100.00;102951.72;5072913;28;20115;-70
2023/05/12 04:04:20;;;;;;;12.57;6.55;;;;;;;8.94;100.00;102960.56;5073475;28;20563;-70
2023/05/12 04:06:45;;;;;;;10.45;6.60;;;;;;;9.22;100.00;102975.69;5055439;28;20058;-70
2023/05/12 04:09:11;;;;;;;10.07;6.85;;;;;;;8.86;100.00;102916.34;5055279;28;20033;-71
2023/05/12 04:11:36;;;;;;;12.82;7.00;;;;;;;9.15;100.00;102971.28;5072140;28;20032;-70
2023/05/12 04:14:02;;;;;;;9.52;6.72;;;;;;;9.01;100.00;102927.81;5073683;28;20059;-70
2023/05/12 04:16:27;;;;;;;8.60;6.55;;;;;;;9.38;100.00;102955.81;5055012;28;20079;-70
2023/05/12 04:18:53;;;;;;;9.05;6.30;;;;;;;9.52;100.00;102961.25;5054901;28;20025;-71
2023/05/12 04:21:18;;;;;;;7.85;5.90;;;;;;;9.57;100.00;102954.56;5074566;28;20068;-75
2023/05/12 04:23:46;;;;;;;10.50;6.05;;;;;;;9.64;100.00;102941.22;5072743;28;20036;-75
2023/05/12 04:26:12;;;;;;;9.23;6.63;;;;;;;9.49;100.00;102893.44;5073650;28;20036;-76
2023/05/12 04:28:37;;;;;;;12.77;6.80;;;;;;;9.77;100.00;102937.25;5073727;28;20037;-73
2023/05/12 04:31:03;;;;;;;10.60;7.00;;;;;;;9.85;100.00;102941.69;5056370;28;20031;-74
2023/05/12 04:33:29;;;;;;;12.95;6.93;;;;;;;9.95;100.00;102918.22;5056006;28;20035;-76
2023/05/12 04:35:56;;;;;;;12.68;7.82;;;;;;;10.30;100.00;102957.16;5056474;28;20056;-74
2023/05/12 04:38:21;;;;;;;14.63;9.18;;;;;;;10.21;100.00;102952.72;5056057;28;20098;-74
2023/05/12 04:40:47;;;;;;;10.60;8.07;;;;;;;9.95;100.00;102924.97;5056089;28;20032;-75
2023/05/12 04:43:12;;;;;;;13.75;8.88;;;;;;;10.62;100.00;103022.25;5053703;28;20025;-75
2023/05/12 04:45:38;;;;;;;17.20;8.90;;;;;;;10.39;100.00;103059.94;5073655;28;20036;-74
2023/05/12 04:48:05;;;;;;;22.27;9.73;;;;;;;10.24;100.00;103168.91;5044380;28;20025;-76
2023/05/12 04:50:31;;;;;;;13.02;10.20;;;;;;;10.42;100.00;103461.03;5053200;28;20086;-76
2023/05/12 04:52:57;;;;;;;14.57;11.13;;;;;;;10.84;100.00;103665.88;5035374;28;20499;-75
2023/05/12 04:55:26;;;;;;;21.10;11.77;;;;;;;10.84;100.00;103963.75;5004469;28;20057;-76
2023/05/12 04:57:54;;;;;;;20.77;13.32;;;;;;;10.59;100.00;104103.66;5012566;28;20033;-76
2023/05/12 05:00:20;;;;;;;23.75;14.82;;;;;;;10.69;100.00;104239.78;5028677;28;20037;-76
2023/05/12 05:02:47;;;;;;;24.23;15.13;;;;;;;10.96;100.00;104408.97;5012459;28;20034;-76
2023/05/12 05:05:12;;;;;;;27.67;13.75;;;;;;;11.39;100.00;104748.03;4996603;28;20041;-77
2023/05/12 05:07:38;;;;;;;20.42;13.52;;;;;;;11.41;100.00;104951.19;5013200;28;20497;-78
2023/05/12 05:10:06;;;;;;;18.05;13.18;;;;;;;11.44;100.00;104951.34;5029120;28;20022;-77
2023/05/12 05:12:36;;;;;;;20.42;11.40;;;;;;;11.92;100.00;104988.56;4997190;28;20034;-77
2023/05/12 05:15:10;;;;;;;21.38;11.18;;;;;;;11.99;100.00;104968.50;5012728;28;20136;-78
2023/05/12 05:17:36;;;;;;;21.83;12.25;;;;;;;11.69;100.00;104823.38;5014317;28;20046;-77
2023/05/12 05:20:06;;;;;;;27.33;13.88;;;;;;;11.96;100.00;104797.41;5012033;28;20050;-78
2023/05/12 05:22:56;;;;;;;23.73;12.82;;;;;;;12.12;100.00;104722.44;5014244;28;20443;-79
2023/05/12 05:25:25;;;;;;;16.02;8.18;;;;;;;12.44;100.00;104719.50;5013796;28;20384;-78
2023/05/12 05:27:51;;;;;;;11.07;5.88;;;;;;;12.33;100.00;104651.84;5012629;28;20030;-79
2023/05/12 05:30:17;;;;;;;10.93;5.35;;;;;;;12.86;100.00;104495.53;5013475;28;20497;-76
2023/05/12 05:32:47;;;;;;;8.77;5.78;;;;;;;12.86;100.00;104345.69;5012558;28;20045;-79
2023/05/12 05:35:12;;;;;;;6.18;4.53;;;;;;;13.35;100.00;104275.72;5011635;28;20041;-78
2023/05/12 05:37:38;;;;;;;9.48;4.38;;;;;;;13.41;100.00;104137.81;5012578;28;20084;-78
2023/05/12 05:40:04;;;;;;;9.13;4.03;;;;;;;12.91;100.00;103914.94;5012272;28;20531;-76
2023/05/12 05:42:29;;;;;;;5.70;4.10;;;;;;;13.19;100.00;103821.13;5011650;28;20444;-77
2023/05/12 05:44:56;;;;;;;5.40;3.50;;;;;;;12.98;100.00;103711.59;5013759;28;20467;-77
2023/05/12 05:47:21;;;;;;;5.47;3.50;;;;;;;13.19;100.00;103603.91;5013307;28;20109;-77
2023/05/12 05:49:46;;;;;;;4.13;3.30;;;;;;;12.94;100.00;103469.69;5011981;28;20048;-77
2023/05/12 05:52:13;;;;;;;4.97;3.72;;;;;;;13.65;100.00;103453.91;5012537;28;20555;-76
2023/05/12 05:54:39;;;;;;;6.78;3.90;;;;;;;13.96;100.00;103400.66;5012505;28;20093;-76
2023/05/12 05:57:05;;;;;;;7.72;4.55;;;;;;;13.39;100.00;103268.59;5012916;28;20069;-75
2023/05/12 05:59:31;;;;;;;6.25;4.13;;;;;;;13.27;100.00;103199.41;5011415;28;20045;-76
2023/05/12 06:01:57;;;;;;;5.53;3.80;;;;;;;13.46;100.00;103155.38;5012894;28;20088;-76
2023/05/12 06:04:22;;;;;;;5.03;4.00;;;;;;;13.83;100.00;103146.38;5010692;28;20459;-77
2023/05/12 06:06:49;;;;;;;4.78;4.05;;;;;;;13.46;100.00;103068.47;5011335;28;20030;-77
2023/05/12 06:09:15;;;;;;;6.88;4.15;;;;;;;13.49;100.00;103013.97;5012664;28;20511;-77
2023/05/12 06:11:40;;;;;;;8.23;4.07;;;;;;;13.36;100.00;102968.66;5012485;28;20042;-76
2023/05/12 06:14:06;;;;;;;7.15;3.78;;;;;;;13.73;100.00;103025.25;5011760;28;20527;-77
2023/05/12 06:16:33;;;;;;;12.57;4.15;;;;;;;14.24;100.00;103046.94;5011562;28;20125;-76
2023/05/12 06:19:00;;;;;;;4.90;3.92;;;;;;;13.94;100.00;102999.81;5012814;28;20026;-76
2023/05/12 06:21:25;;;;;;;6.25;3.85;;;;;;;13.44;100.00;102924.44;5012002;28;20037;-76
2023/05/12 06:23:54;;;;;;;7.55;3.60;;;;;;;13.45;100.00;102898.03;5011057;28;20029;-76
2023/05/12 06:26:20;;;;;;;6.63;3.70;;;;;;;13.68;100.00;102831.72;5011261;28;20045;-75
2023/05/12 06:28:46;;;;;;;5.80;3.63;;;;;;;13.88;100.00;102827.56;5012883;28;20030;-76
2023/05/12 06:31:12;;;;;;;9.20;4.55;;;;;;;14.02;100.00;102856.63;5011768;28;20140;-76
2023/05/12 06:33:38;;;;;;;6.50;4.53;;;;;;;14.25;100.00;102864.38;5011842;28;20376;-76
2023/05/12 06:36:04;;;;;;;8.77;5.35;;;;;;;14.74;100.00;102864.53;5012001;28;20041;-75
2023/05/12 06:38:37;;;;;;;7.00;4.40;;;;;;;14.66;100.00;102811.56;5012412;28;20115;-76
2023/05/12 06:41:02;;;;;;;5.70;3.55;;;;;;;14.50;100.00;102784.22;5027128;28;20136;-76
2023/05/12 06:43:28;;;;;;;8.40;5.60;;;;;;;14.71;100.00;102738.16;5011328;28;20469;-77
2023/05/12 06:45:55;;;;;;;14.38;7.15;;;;;;;14.94;100.00;102739.00;5011346;28;20038;-76
2023/05/12 06:48:21;;;;;;;8.15;4.65;;;;;;;15.28;100.00;102696.19;5011200;28;20021;-76
2023/05/12 06:50:47;;;;;;;10.40;4.30;;;;;;;14.07;100.00;102608.44;5012747;28;20029;-76
2023/05/12 06:53:13;;;;;;;10.00;4.40;;;;;;;14.97;100.00;102627.97;5012575;28;20061;-75
2023/05/12 06:55:39;;;;;;;7.00;4.57;;;;;;;15.21;100.00;102533.03;4994716;28;20479;-76
2023/05/12 06:58:04;;;;;;;5.65;3.92;;;;;;;15.08;100.00;102524.56;5012653;28;20516;-77
2023/05/12 07:00:30;;;;;;;7.25;3.90;;;;;;;15.65;100.00;102535.34;5011474;28;20102;-77
2023/05/12 07:02:56;;;;;;;6.53;3.78;;;;;;;14.99;100.00;102452.03;4994552;28;20575;-77
2023/05/12 07:05:21;;;;;;;5.45;3.10;;;;;;;14.63;100.00;102423.22;5011068;28;20046;-76
2023/05/12 07:07:48;;;;;;;7.55;3.40;;;;;;;14.78;100.00;102407.75;4979054;28;20060;-76
2023/05/12 07:10:14;;;;;;;5.53;3.30;;;;;;;15.09;100.00;102387.03;4995298;28;20072;-77
2023/05/12 07:12:46;;;;;;;11.02;4.90;;;;;;;15.30;100.00;102349.25;5012282;28;20120;-77
2023/05/12 07:15:12;;;;;;;5.22;3.00;;;;;;;15.55;100.00;102273.81;5011717;28;20030;-78
2023/05/12 07:17:37;;;;;;;7.22;3.17;;;;;;;16.23;100.00;102172.81;5010641;28;20037;-77
2023/05/12 07:20:04;;;;;;;6.18;3.70;;;;;;;15.81;100.00;102086.22;5011817;28;20052;-77
2023/05/12 07:22:32;;;;;;;6.13;3.10;;;;;;;15.55;100.00;101972.94;5011440;28;20040;-77
2023/05/12 07:24:58;;;;;;;4.07;2.95;;;;;;;16.34;100.00;101986.06;4995023;28;20084;-77
2023/05/12 07:27:23;;;;;;;5.97;3.08;;;;;;;16.40;100.00;101916.59;4994672;28;20124;-76
2023/05/12 07:29:49;;;;;;;6.38;2.80;;;;;;;17.12;100.00;101879.91;5011195;28;20504;-76
2023/05/12 07:32:14;;;;;;;4.88;2.65;;;;;;;15.94;100.00;101781.56;5012358;28;20049;-77
2023/05/12 07:34:40;;;;;;;5.30;2.58;;;;;;;15.93;100.00;101697.78;5015802;28;20402;-76
2023/05/12 07:37:05;;;;;;;4.32;2.83;;;;;;;15.54;100.00;101592.66;5014975;28;20038;-76
2023/05/12 07:39:31;;;;;;;3.83;2.63;;;;;;;15.85;100.00;101643.22;5014497;28;20030;-76
2023/05/12 07:41:58;;;;;;;4.95;2.70;;;;;;;16.79;100.00;101649.47;5014907;28;20022;-77
2023/05/12 07:44:25;;;;;;;5.95;2.60;;;;;;;16.35;100.00;101569.28;5028059;28;20079;-77
2023/05/12 07:46:50;;;;;;;6.65;2.67;;;;;;;17.45;100.00;101597.91;5035981;28;20088;-76
2023/05/12 07:49:16;;;;;;;3.10;2.63;;;;;;;16.26;100.00;101514.78;5034573;28;20025;-76
2023/05/12 07:51:42;;;;;;;5.22;2.70;;;;;;;16.44;100.00;101511.69;5035264;28;20115;-76
2023/05/12 07:54:08;;;;;;;3.25;2.45;;;;;;;15.64;100.00;101442.00;5035518;28;20029;-76
2023/05/12 07:56:34;;;;;;;6.30;2.65;;;;;;;15.77;100.00;101522.06;5075235;28;20031;-78
2023/05/12 07:58:59;;;;;;;4.43;3.00;;;;;;;16.02;100.00;101529.09;5056377;28;20107;-76
2023/05/12 08:01:29;;;;;;;4.07;2.72;;;;;;;15.47;100.00;101475.72;5074791;28;20036;-77
2023/05/12 08:03:55;;;;;;;4.93;2.55;;;;;;;16.82;100.00;101572.31;5057567;28;20028;-74
2023/05/12 08:06:20;;;;;;;6.55;3.00;;;;;;;16.29;100.00;101506.97;5074334;28;20472;-75
2023/05/12 08:08:48;;;;;;;5.70;2.85;;;;;;;16.63;100.00;101497.50;5056638;28;20016;-75
2023/05/12 08:11:14;;;;;;;5.95;3.00;;;;;;;16.24;100.00;101436.97;5074830;28;20025;-75
2023/05/12 08:13:39;;;;;;;5.88;3.03;;;;;;;15.89;100.00;101406.28;5073899;28;20047;-75
2023/05/12 08:16:05;;;;;;;5.30;2.90;;;;;;;16.67;100.00;101514.53;5056843;28;20568;-76
2023/05/12 08:18:30;;;;;;;7.82;3.40;;;;;;;15.99;100.00;101441.06;5074912;28;20447;-76
2023/05/12 08:20:56;;;;;;;6.32;3.30;;;;;;;16.03;100.00;101499.13;5074198;28;20111;-76
2023/05/12 08:23:21;;;;;;;5.55;3.30;;;;;;;15.99;100.00;101511.19;5074411;28;20021;-76
2023/05/12 08:25:48;;;;;;;5.60;3.20;;;;;;;15.71;100.00;101538.41;5074565;28;20028;-76
2023/05/12 08:28:13;;;;;;;5.82;3.72;;;;;;;16.23;100.00;101609.81;5074357;28;20605;-76
2023/05/12 08:30:40;;;;;;;5.60;3.38;;;;;;;15.68;100.00;101630.81;5074331;28;20040;-76
2023/05/12 08:33:05;;;;;;;5.75;3.05;;;;;;;15.07;100.00;101569.75;5074734;28;20036;-76
2023/05/12 08:35:31;;;;;;;9.52;3.40;;;;;;;15.78;100.00;101698.13;5057179;28;20120;-76
2023/05/12 08:37:58;;;;;;;6.57;3.15;;;;;;;15.72;100.00;101721.34;5056186;28;20037;-75
2023/05/12 08:40:25;;;;;;;5.43;3.08;;;;;;;15.71;100.00;101728.19;5074782;28;20028;-76
2023/05/12 08:43:05;;;;;;;5.22;3.20;;;;;;;16.01;100.00;101742.91;5056513;28;20043;-75
2023/05/12 08:45:31;;;;;;;4.65;2.90;;;;;;;15.65;100.00;101753.13;5073775;28;20044;-76
2023/05/12 08:47:58;;;;;;;5.40;2.90;;;;;;;15.77;100.00;101737.50;5074097;28;20037;-76
2023/05/12 08:50:25;;;;;;;4.70;3.20;;;;;;;15.91;100.00;101690.13;5056995;28;20479;-76
2023/05/12 08:52:51;;;;;;;4.38;3.20;;;;;;;15.72;100.00;101663.19;5074656;28;20043;-76
2023/05/12 08:55:19;;;;;;;5.22;3.53;;;;;;;15.71;100.00;101588.88;5074497;28;20048;-75
2023/05/12 08:57:47;;;;;;;4.15;3.00;;;;;;;16.73;100.00;101614.53;5074597;28;20493;-76
2023/05/12 09:00:14;;;;;;;6.88;3.47;;;;;;;16.57;100.00;101555.91;5057212;28;20453;-75
2023/05/12 09:02:41;;;;;;;6.05;3.08;;;;;;;16.79;100.00;101479.94;5056826;28;20032;-76
2023/05/12 09:05:10;;;;;;;5.22;2.70;;;;;;;17.07;100.00;101470.50;5056051;28;20036;-75
2023/05/12 09:07:41;;;;;;;3.80;2.38;;;;;;;17.35;100.00;101366.72;5070999;28;20116;-76
2023/05/12 09:10:16;;;;;;;4.95;2.72;;;;;;;18.13;100.00;101381.16;5056370;28;20411;-76
2023/05/12 09:12:44;;;;;;;3.33;2.60;;;;;;;17.07;100.00;101294.00;5045871;28;20041;-78
2023/05/12 09:15:14;;;;;;;3.03;2.13;;;;;;;17.35;100.00;101311.94;5037420;28;20037;-79
2023/05/12 09:17:40;;;;;;;3.58;2.20;;;;;;;16.71;100.00;101199.34;5055405;28;20024;-76
2023/05/12 09:20:06;;;;;;;3.13;2.28;;;;;;;17.59;100.00;101203.06;5073593;28;20449;-76
2023/05/12 09:22:33;;;;;;;4.35;2.15;;;;;;;17.50;100.00;101172.53;5055660;28;20029;-77
2023/05/12 09:25:01;;;;;;;5.35;2.60;;;;;;;16.90;100.00;101170.41;5059179;28;20074;-76
2023/05/12 09:27:28;;;;;;;4.57;2.45;;;;;;;17.39;100.00;101160.94;5071962;28;20035;-77
2023/05/12 09:29:53;;;;;;;6.15;2.63;;;;;;;17.92;100.00;101208.69;5055629;28;20106;-78
2023/05/12 09:32:33;;;;;;;5.35;2.10;;;;;;;17.35;100.00;101171.31;5055842;28;20071;-76
2023/05/12 09:35:06;;;;;;;3.30;2.15;;;;;;;17.90;100.00;101174.44;5046920;28;20032;-74
2023/05/12 09:37:35;;;;;;;3.97;2.10;;;;;;;17.15;100.00;101108.72;5071905;28;20555;-73
2023/05/12 09:40:06;;;;;;;5.97;2.10;;;;;;;17.28;100.00;101159.59;5069660;28;20037;-77
2023/05/12 09:42:34;;;;;;;3.90;2.20;;;;;;;16.69;100.00;101106.09;5055372;28;20032;-78
2023/05/12 09:45:08;;;;;;;5.57;2.40;;;;;;;16.96;100.00;101121.38;5070793;28;20036;-76
2023/05/12 09:47:35;;;;;;;5.60;2.03;;;;;;;17.06;100.00;101086.75;5055545;28;20032;-76
2023/05/12 09:50:06;;;;;;;7.15;2.47;;;;;;;17.19;100.00;101035.72;5073276;28;20028;-73
2023/05/12 09:52:37;;;;;;;5.28;2.30;;;;;;;16.98;100.00;101118.75;5054672;28;20109;-74
2023/05/12 09:55:18;;;;;;;4.05;2.25;;;;;;;16.64;100.00;101065.16;5054036;28;20045;-75
2023/05/12 09:57:44;;;;;;;8.80;3.70;;;;;;;16.85;100.00;101100.38;5052765;28;20050;-75
2023/05/12 10:00:15;;;;;;;3.45;2.58;;;;;;;17.41;100.00;101103.41;5072434;28;20043;-74
2023/05/12 10:02:44;;;;;;;7.72;3.85;;;;;;;17.19;100.00;101018.56;5053326;28;20035;-76
2023/05/12 10:05:20;;;;;;;6.85;3.60;;;;;;;17.75;100.00;101066.97;5054634;28;20051;-75
2023/05/12 10:07:51;;;;;;;5.47;2.30;;;;;;;17.47;100.00;101046.59;5071795;28;20036;-74
2023/05/12 10:10:19;;;;;;;4.53;2.53;;;;;;;17.64;100.00;101003.09;5053351;28;20117;-74
2023/05/12 10:12:45;;;;;;;4.80;2.35;;;;;;;17.87;100.00;101009.84;5071890;28;20028;-75
2023/05/12 10:15:12;;;;;;;6.95;2.75;;;;;;;17.29;100.00;100937.63;5054176;28;20016;-74
2023/05/12 10:17:38;;;;;;;12.07;3.70;;;;;;;17.25;100.00;100964.34;5054436;28;20146;-75
2023/05/12 10:20:06;;;;;;;5.75;2.67;;;;;;;17.53;100.00;100920.38;5054169;28;20112;-75
2023/05/12 10:22:38;;;;;;;4.95;2.40;;;;;;;17.19;100.00;100944.00;5054280;28;20036;-75
2023/05/12 10:25:07;;;;;;;5.22;2.30;;;;;;;17.55;100.00;100928.06;5054169;28;20490;-75
2023/05/12 10:27:33;;;;;;;4.47;2.88;;;;;;;17.01;100.00;100889.97;5054841;28;20029;-75
2023/05/12 10:30:01;;;;;;;5.47;2.58;;;;;;;17.72;100.00;100918.75;5054349;28;20036;-75
2023/05/12 10:32:27;;;;;;;3.88;2.63;;;;;;;18.22;100.00;100902.84;5054653;28;20364;-75
2023/05/12 10:34:53;;;;;;;6.97;2.33;;;;;;;18.34;100.00;100879.13;5053677;28;20065;-75
2023/05/12 10:37:21;;;;;;;5.63;2.28;;;;;;;17.34;100.00;100812.31;5054176;28;20032;-76
2023/05/12 10:39:52;;;;;;;5.78;2.30;;;;;;;17.83;100.00;100864.22;5054216;28;20024;-75
2023/05/12 10:42:25;;;;;;;4.43;2.13;;;;;;;18.04;100.00;100786.91;5071462;28;20024;-74
2023/05/12 10:44:52;;;;;;;3.65;2.33;;;;;;;17.86;100.00;100835.81;5054062;28;20041;-75
2023/05/12 10:47:41;;;;;;;6.03;2.15;;;;;;;18.18;100.00;100837.78;5053748;28;20024;-75
2023/05/12 10:50:07;;;;;;;6.28;3.88;;;;;;;18.27;100.00;100837.34;5072555;28;20025;-76
2023/05/12 10:52:32;;;;;;;7.20;3.10;;;;;;;18.23;100.00;100766.31;5054281;28;20498;-75
2023/05/12 10:55:00;;;;;;;5.78;2.05;;;;;;;18.28;100.00;100787.56;5053831;28;20057;-76
2023/05/12 10:57:26;;;;;;;3.33;2.00;;;;;;;17.90;100.00;100824.47;5054117;28;20396;-75
2023/05/12 10:59:56;;;;;;;3.33;2.28;;;;;;;18.74;100.00;100801.66;5071424;28;20025;-76
2023/05/12 11:02:33;;;;;;;5.07;2.22;;;;;;;18.37;100.00;100751.06;5071681;28;20099;-75
2023/05/12 11:04:59;;;;;;;4.10;1.92;;;;;;;18.03;100.00;100741.50;5071439;28;20058;-75
2023/05/12 11:07:31;;;;;;;2.92;2.05;;;;;;;18.14;100.00;100715.28;5053351;28;20036;-75
2023/05/12 11:09:57;;;;;;;;;;;;;;;18.56;100.00;100789.69;5052066;28;20032;-75
2023/05/12 11:12:25;;;;;;;6.97;2.90;;;;;;;18.27;100.00;100788.44;5071405;28;19909;-75
2023/05/12 11:14:52;;;;;;;6.65;2.50;;;;;;;18.16;100.00;100793.25;5054010;28;20414;-75
2023/05/12 11:17:19;;;;;;;4.85;1.90;;;;;;;18.49;100.00;100790.88;5071796;28;20028;-76